This is the latest recevied weather packets stored in our database for station/object KE0SWK-13. If no packets are shown the sender has not sent any weather packets the latest 10 day(s).
| Time | Temp. | Humidity | Pressure | Rain* | Wind** | Luminosity | Snow |
|---|---|---|---|---|---|---|---|
| 1777759224 | 18.89° C | 33% | 1021.2 hPa | 0 mm | - | - | - |
| 1777758649 | 19.44° C | 34% | 1021.3 hPa | 0 mm | - | - | - |
| 1777756220 | 19.44° C | 30% | 1021.6 hPa | 0 mm | - | - | - |
| 1777755626 | 18.89° C | 31% | 1021.8 hPa | 0 mm | - | - | - |
| 1777749026 | 19.44° C | 36% | 1022.8 hPa | 0 mm | - | - | - |
| 1777746645 | 20° C | 32% | 1023 hPa | 0 mm | - | - | - |
| 1777745422 | 18.33° C | 37% | 1023 hPa | 0 mm | - | - | - |
| 1777736440 | 15.56° C | 42% | 1023.7 hPa | 0 mm | - | - | - |
| 1777731619 | 15.56° C | 49% | 1023.3 hPa | 0 mm | - | - | - |
| 1777728622 | 12.78° C | 57% | 1023 hPa | 0 mm | - | - | - |
| 1777728022 | 11.67° C | 60% | 1022.9 hPa | 0 mm | - | - | - |
| 1777723831 | 5° C | 82% | 1022.1 hPa | 0 mm | - | - | - |
| 1777720828 | 3.89° C | 83% | 1021.7 hPa | 0 mm | - | - | - |
| 1777710622 | 6.67° C | 71% | 1020.6 hPa | 0 mm | - | - | - |
| 1777710022 | 6.67° C | 70% | 1020.5 hPa | 0 mm | - | - | - |
| 1777707649 | 7.22° C | 68% | 1020.5 hPa | 0 mm | - | - | - |
| 1777704628 | 7.22° C | 72% | 1020.4 hPa | 0 mm | - | - | - |
| 1777702847 | 6.67° C | 75% | 1020.4 hPa | 0 mm | - | - | - |
| 1777702223 | 7.22° C | 76% | 1020.4 hPa | 0 mm | - | - | - |
| 1777700428 | 7.22° C | 74% | 1020.4 hPa | 0 mm | - | - | - |
| 1777698023 | 7.78° C | 69% | 1020.3 hPa | 0 mm | - | - | - |
| 1777692642 | 9.44° C | 68% | 1020.3 hPa | 0 mm | - | - | - |
| 1777690867 | 10.56° C | 59% | 1020.2 hPa | 0 mm | - | - | - |
| 1777680046 | 17.22° C | 39% | 1018 hPa | 0 mm | - | - | - |
| 1777677042 | 18.33° C | 37% | 1017.9 hPa | 0 mm | - | - | - |
* Rain latest hour (hover to see other rain measurements)
** Current wind speed in m/s (hover to see current wind gust speed)